createdAt,value
2023-09-06T00:00:30.674Z,83.10
2023-09-06T00:03:34.166Z,83.21
2023-09-06T00:06:36.844Z,83.72
2023-09-06T00:09:41.535Z,83.97
2023-09-06T00:12:46.387Z,84.19
2023-09-06T00:15:51.008Z,84.02
2023-09-06T00:18:53.873Z,86.98
2023-09-06T00:22:00.387Z,85.09
2023-09-06T00:25:03.605Z,87.56
2023-09-06T00:28:08.295Z,85.54
2023-09-06T00:31:10.861Z,86.71
2023-09-06T00:34:15.710Z,86.10
2023-09-06T00:37:18.517Z,87.39
2023-09-06T00:40:25.095Z,88.00
2023-09-06T00:43:27.525Z,86.14
2023-09-06T00:46:30.641Z,86.73
2023-09-06T00:49:33.567Z,85.49
2023-09-06T00:52:36.671Z,86.56
2023-09-06T00:55:39.390Z,85.69
2023-09-06T00:58:50.113Z,87.10
2023-09-06T01:01:53.675Z,86.17
2023-09-06T01:04:56.455Z,86.18
2023-09-06T01:08:04.304Z,86.32
2023-09-06T01:11:15.956Z,85.93
2023-09-06T01:14:18.480Z,85.98
2023-09-06T01:17:23.501Z,86.04
2023-09-06T01:20:35.082Z,85.69
2023-09-06T01:23:42.831Z,85.52
2023-09-06T01:26:45.557Z,85.76
2023-09-06T01:29:48.652Z,85.67
2023-09-06T01:32:51.618Z,86.85
2023-09-06T01:35:55.257Z,86.92
2023-09-06T01:38:58.674Z,87.93
2023-09-06T01:42:01.429Z,88.17
2023-09-06T01:45:04.332Z,87.43
2023-09-06T01:48:07.417Z,89.67
2023-09-06T01:51:10.377Z,88.55
2023-09-06T01:54:13.321Z,88.99
2023-09-06T01:57:17.144Z,88.68
2023-09-06T02:00:23.070Z,88.65
2023-09-06T02:03:26.475Z,88.11
2023-09-06T02:06:29.385Z,88.12
2023-09-06T02:09:32.014Z,88.21
2023-09-06T02:12:35.191Z,88.12
2023-09-06T02:15:37.882Z,88.08
2023-09-06T02:18:41.424Z,88.34
2023-09-06T02:21:44.452Z,88.20
2023-09-06T02:24:47.221Z,88.94
2023-09-06T02:27:50.650Z,88.59
2023-09-06T02:30:55.364Z,88.77
2023-09-06T02:33:58.571Z,88.40
2023-09-06T02:37:02.135Z,88.75
2023-09-06T02:40:15.377Z,88.61
2023-09-06T02:43:18.102Z,89.05
2023-09-06T02:46:21.000Z,89.01
2023-09-06T02:49:27.391Z,89.24
2023-09-06T02:52:31.748Z,89.03
2023-09-06T02:55:36.604Z,89.72
2023-09-06T02:58:40.336Z,90.80
2023-09-06T03:01:46.575Z,90.13
2023-09-06T03:04:58.604Z,91.47
2023-09-06T03:08:01.718Z,90.79
2023-09-06T03:11:07.212Z,90.67
2023-09-06T03:14:11.604Z,90.57
2023-09-06T03:17:19.486Z,91.20
2023-09-06T03:20:32.756Z,90.71
2023-09-06T03:23:37.101Z,90.60
2023-09-06T03:26:45.281Z,89.83
2023-09-06T03:29:52.639Z,89.82
2023-09-06T03:32:55.650Z,90.94
2023-09-06T03:35:59.109Z,90.08
2023-09-06T03:39:02.365Z,89.77
2023-09-06T03:42:09.662Z,89.80
2023-09-06T03:45:16.709Z,90.17
2023-09-06T03:48:21.942Z,90.39
2023-09-06T03:51:25.809Z,90.09
2023-09-06T03:54:28.901Z,89.35
2023-09-06T03:57:32.521Z,89.11
2023-09-06T04:00:36.211Z,89.49
2023-09-06T04:03:40.287Z,89.25
2023-09-06T04:06:44.505Z,89.45
2023-09-06T04:09:48.293Z,89.80
2023-09-06T04:12:52.305Z,89.48
2023-09-06T04:15:55.089Z,90.25
2023-09-06T04:18:59.067Z,90.16
2023-09-06T04:22:02.971Z,89.81
2023-09-06T04:25:07.898Z,89.40
2023-09-06T04:28:14.835Z,90.14
2023-09-06T04:31:19.020Z,89.65
2023-09-06T04:34:23.562Z,90.56
2023-09-06T04:37:25.974Z,89.67
2023-09-06T04:40:30.542Z,89.69
2023-09-06T04:43:33.230Z,90.40
2023-09-06T04:46:36.482Z,89.68
2023-09-06T04:49:40.647Z,89.64
2023-09-06T04:52:48.472Z,89.33
2023-09-06T04:55:51.291Z,88.69
2023-09-06T04:58:57.122Z,88.62
2023-09-06T05:01:59.635Z,87.90
2023-09-06T05:05:03.269Z,87.41
2023-09-06T05:08:07.212Z,87.26
2023-09-06T05:11:09.960Z,86.30
2023-09-06T05:14:12.816Z,86.19
2023-09-06T05:17:16.303Z,85.27
2023-09-06T05:20:36.712Z,84.32
2023-09-06T05:23:40.244Z,83.80
2023-09-06T05:26:43.171Z,82.94
2023-09-06T05:29:46.719Z,82.76
2023-09-06T05:32:50.988Z,81.69
2023-09-06T05:35:55.914Z,81.58
2023-09-06T05:38:58.441Z,80.21
2023-09-06T05:42:02.181Z,79.54
2023-09-06T05:45:09.494Z,78.77
2023-09-06T05:48:16.768Z,78.78
2023-09-06T05:51:19.725Z,79.07
2023-09-06T05:54:23.227Z,77.98
2023-09-06T05:57:25.895Z,76.90
2023-09-06T06:00:30.241Z,73.24
2023-09-06T06:03:34.272Z,67.58
2023-09-06T06:06:37.599Z,61.97
2023-09-06T06:09:41.287Z,57.97
2023-09-06T06:12:44.506Z,58.85
2023-09-06T06:15:47.275Z,54.45
2023-09-06T06:18:50.120Z,56.01
2023-09-06T06:21:53.105Z,52.05
2023-09-06T06:25:01.074Z,51.06
2023-09-06T06:28:04.189Z,48.97
2023-09-06T06:31:07.818Z,49.90
2023-09-06T06:34:11.409Z,46.39
2023-09-06T06:37:13.908Z,47.52
2023-09-06T06:40:17.656Z,43.23
2023-09-06T06:43:20.174Z,42.42
2023-09-06T06:46:34.527Z,42.15
2023-09-06T06:49:37.211Z,42.74
2023-09-06T06:52:45.441Z,42.48
2023-09-06T06:55:48.416Z,44.72
2023-09-06T06:58:52.166Z,41.78
2023-09-06T07:01:55.011Z,39.71
2023-09-06T07:04:59.140Z,41.11
2023-09-06T07:08:03.491Z,42.36
2023-09-06T07:11:08.247Z,40.52
2023-09-06T07:14:11.197Z,40.92
2023-09-06T07:17:14.002Z,40.36
2023-09-06T07:20:16.519Z,40.29
2023-09-06T07:23:19.318Z,40.12
2023-09-06T07:26:22.824Z,38.67
2023-09-06T07:29:25.723Z,39.87
2023-09-06T07:32:28.224Z,37.97
2023-09-06T07:35:33.741Z,38.65
2023-09-06T07:38:36.920Z,37.54
2023-09-06T07:41:42.485Z,39.16
2023-09-06T07:44:45.272Z,38.50
2023-09-06T07:47:48.383Z,37.49
2023-09-06T07:50:51.441Z,37.54
2023-09-06T07:53:55.014Z,36.81
2023-09-06T07:56:57.521Z,36.98
2023-09-06T08:00:00.228Z,37.25
2023-09-06T08:03:04.181Z,37.40
2023-09-06T08:06:08.663Z,36.89
2023-09-06T08:09:11.868Z,37.81
2023-09-06T08:12:14.924Z,37.26
2023-09-06T08:15:18.432Z,37.54
2023-09-06T08:18:21.364Z,38.65
2023-09-06T08:21:23.975Z,38.68
2023-09-06T08:24:26.798Z,38.02
2023-09-06T08:27:29.703Z,38.97
2023-09-06T08:30:32.889Z,37.89
2023-09-06T08:33:35.808Z,38.22
2023-09-06T08:36:38.863Z,39.55
2023-09-06T08:39:41.800Z,38.66
2023-09-06T08:42:46.313Z,39.86
2023-09-06T08:45:49.970Z,38.28
2023-09-06T08:48:54.107Z,38.34
2023-09-06T08:51:57.584Z,38.05
2023-09-06T08:55:00.632Z,38.46
2023-09-06T08:58:04.702Z,40.01
2023-09-06T09:01:07.817Z,38.63
2023-09-06T09:04:10.963Z,37.76
2023-09-06T09:07:14.566Z,38.73
2023-09-06T09:10:17.931Z,38.52
2023-09-06T09:13:20.987Z,37.39
2023-09-06T09:16:24.798Z,36.62
2023-09-06T09:19:28.247Z,37.13
2023-09-06T09:22:36.229Z,38.10
2023-09-06T09:25:50.691Z,38.29
2023-09-06T09:28:53.230Z,37.09
2023-09-06T09:32:04.163Z,36.90
2023-09-06T09:35:12.955Z,36.50
2023-09-06T09:38:15.799Z,38.32
2023-09-06T09:41:18.814Z,36.39
2023-09-06T09:44:22.108Z,34.08
2023-09-06T09:50:35.313Z,35.37
2023-09-06T09:53:40.915Z,35.03
2023-09-06T09:56:53.255Z,35.82
2023-09-06T09:59:57.390Z,35.35
2023-09-06T10:03:01.730Z,34.79
2023-09-06T10:06:05.569Z,34.88
2023-09-06T10:09:14.108Z,35.43
2023-09-06T10:12:17.815Z,38.49
2023-09-06T10:15:24.770Z,35.56
2023-09-06T10:18:29.065Z,35.05
2023-09-06T10:21:33.995Z,35.72
2023-09-06T10:24:37.468Z,34.64
2023-09-06T10:28:09.886Z,34.22
2023-09-06T10:31:13.752Z,35.04
2023-09-06T10:34:16.969Z,34.57
2023-09-06T10:37:19.807Z,33.71
2023-09-06T10:40:25.105Z,34.26
2023-09-06T10:43:30.049Z,34.19
2023-09-06T10:46:37.301Z,33.80
2023-09-06T10:49:40.666Z,33.55
2023-09-06T10:53:04.024Z,33.22
2023-09-06T10:56:07.871Z,34.18
2023-09-06T10:59:20.849Z,33.02
2023-09-06T11:02:23.970Z,34.04
2023-09-06T11:05:52.883Z,33.68
2023-09-06T11:09:04.905Z,31.28
2023-09-06T11:12:08.044Z,32.61
2023-09-06T11:15:11.565Z,33.35
2023-09-06T11:18:15.466Z,33.79
2023-09-06T11:24:44.835Z,34.20
2023-09-06T11:27:48.935Z,33.53
2023-09-06T11:30:52.176Z,32.05
2023-09-06T11:33:59.632Z,31.89
2023-09-06T11:37:04.802Z,30.42
2023-09-06T11:40:16.389Z,31.08
2023-09-06T11:43:24.339Z,32.11
2023-09-06T11:46:28.535Z,34.57
2023-09-06T11:49:34.050Z,32.63
2023-09-06T11:52:51.364Z,32.41
2023-09-06T11:56:02.915Z,31.97
2023-09-06T11:59:08.295Z,32.25
2023-09-06T12:02:14.394Z,31.32
2023-09-06T12:05:29.255Z,30.93
2023-09-06T12:08:39.508Z,33.23
2023-09-06T12:11:42.810Z,33.50
2023-09-06T12:14:45.618Z,33.27
2023-09-06T12:17:48.865Z,32.79
2023-09-06T12:20:51.901Z,34.06
2023-09-06T12:23:54.715Z,33.46
2023-09-06T12:26:59.338Z,34.52
2023-09-06T12:30:02.696Z,34.76
2023-09-06T12:33:05.793Z,32.47
2023-09-06T12:36:12.105Z,33.11
2023-09-06T12:39:15.007Z,33.59
2023-09-06T12:42:17.912Z,32.65
2023-09-06T12:45:29.748Z,32.61
2023-09-06T12:48:33.167Z,30.20
2023-09-06T12:51:38.223Z,33.85
2023-09-06T12:54:41.337Z,33.54
2023-09-06T12:57:44.453Z,34.36
2023-09-06T13:00:48.009Z,34.22
2023-09-06T13:03:50.726Z,34.65
2023-09-06T13:06:53.799Z,33.73
2023-09-06T13:09:58.347Z,34.50
2023-09-06T13:13:01.438Z,34.55
2023-09-06T13:16:07.444Z,34.46
2023-09-06T13:19:15.715Z,34.89
2023-09-06T13:22:18.707Z,35.26
2023-09-06T13:25:21.798Z,34.53
2023-09-06T13:28:24.664Z,35.37
2023-09-06T13:31:27.669Z,34.68
2023-09-06T13:34:30.680Z,34.19
2023-09-06T13:37:33.561Z,34.07
2023-09-06T13:40:36.437Z,33.86
2023-09-06T13:43:39.517Z,35.02
2023-09-06T13:46:42.728Z,35.68
2023-09-06T13:49:45.598Z,35.01
2023-09-06T13:52:48.343Z,35.96
2023-09-06T13:55:51.190Z,35.99
2023-09-06T13:58:53.795Z,37.46
2023-09-06T14:01:56.854Z,36.33
2023-09-06T14:04:59.808Z,36.41
2023-09-06T14:08:03.877Z,35.79
2023-09-06T14:11:06.932Z,36.00
2023-09-06T14:14:10.038Z,35.36
2023-09-06T14:17:32.860Z,35.47
2023-09-06T14:20:56.306Z,35.31
2023-09-06T14:23:59.244Z,36.02
2023-09-06T14:27:18.248Z,37.29
2023-09-06T14:30:21.089Z,36.25
2023-09-06T14:33:23.916Z,35.93
2023-09-06T14:36:27.198Z,36.70
2023-09-06T14:39:30.669Z,36.08
2023-09-06T14:42:33.830Z,36.70
2023-09-06T14:45:39.755Z,37.07
2023-09-06T14:48:42.960Z,36.94
2023-09-06T14:51:46.702Z,35.93
2023-09-06T14:54:49.908Z,35.85
2023-09-06T14:57:52.452Z,36.08
2023-09-06T15:00:56.034Z,37.08
2023-09-06T15:03:58.789Z,36.77
2023-09-06T15:07:01.980Z,35.57
2023-09-06T15:10:05.495Z,35.09
2023-09-06T15:13:13.124Z,35.91
2023-09-06T15:16:16.159Z,36.24
2023-09-06T15:19:19.260Z,36.31
2023-09-06T15:22:36.653Z,36.16
2023-09-06T15:25:41.897Z,36.52
2023-09-06T15:28:45.409Z,36.45
2023-09-06T15:31:48.303Z,36.49
2023-09-06T15:34:52.307Z,36.71
2023-09-06T15:38:04.850Z,36.72
2023-09-06T15:41:12.777Z,36.73
2023-09-06T15:44:17.263Z,36.43
2023-09-06T15:47:20.294Z,36.35
2023-09-06T15:50:26.154Z,35.69
2023-09-06T15:53:28.644Z,36.33
2023-09-06T15:56:31.444Z,37.24
2023-09-06T15:59:34.090Z,37.06
2023-09-06T16:02:41.182Z,37.20
2023-09-06T16:05:44.809Z,37.48
2023-09-06T16:08:47.539Z,37.25
2023-09-06T16:11:55.998Z,37.38
2023-09-06T16:14:59.403Z,37.83
2023-09-06T16:18:05.729Z,38.62
2023-09-06T16:21:08.642Z,39.68
2023-09-06T16:24:12.076Z,40.08
2023-09-06T16:27:14.935Z,40.16
2023-09-06T16:30:19.363Z,40.56
2023-09-06T16:33:22.198Z,40.74
2023-09-06T16:36:25.508Z,40.67
2023-09-06T16:39:28.309Z,41.09
2023-09-06T16:42:31.890Z,41.83
2023-09-06T16:45:34.389Z,42.23
2023-09-06T16:48:37.151Z,42.45
2023-09-06T16:51:39.852Z,42.74
2023-09-06T16:54:42.893Z,42.88
2023-09-06T16:57:45.404Z,43.20
2023-09-06T17:00:48.478Z,43.65
2023-09-06T17:03:51.253Z,44.08
2023-09-06T17:06:54.002Z,46.78
2023-09-06T17:09:56.454Z,48.83
2023-09-06T17:12:59.646Z,50.35
2023-09-06T17:16:02.242Z,51.72
2023-09-06T17:19:10.556Z,53.33
2023-09-06T17:22:13.637Z,53.85
2023-09-06T17:25:17.263Z,54.41
2023-09-06T17:28:19.793Z,55.66
2023-09-06T17:31:22.570Z,56.54
2023-09-06T17:34:25.092Z,57.16
2023-09-06T17:37:28.145Z,57.29
2023-09-06T17:40:30.869Z,57.35
2023-09-06T17:43:34.144Z,57.67
2023-09-06T17:46:37.238Z,58.38
2023-09-06T17:49:40.998Z,58.50
2023-09-06T17:52:43.772Z,58.90
2023-09-06T17:55:48.816Z,59.41
2023-09-06T17:58:51.370Z,59.48
2023-09-06T18:01:55.092Z,59.81
2023-09-06T18:04:58.326Z,60.27
2023-09-06T18:08:02.016Z,60.89
2023-09-06T18:11:09.679Z,60.87
2023-09-06T18:14:12.736Z,61.47
2023-09-06T18:17:15.766Z,62.16
2023-09-06T18:20:18.833Z,62.50
2023-09-06T18:23:22.776Z,62.74
2023-09-06T18:26:25.665Z,63.47
2023-09-06T18:29:28.315Z,63.78
2023-09-06T18:32:32.721Z,63.99
2023-09-06T18:35:36.437Z,64.46
2023-09-06T18:38:39.388Z,64.83
2023-09-06T18:41:43.245Z,64.74
2023-09-06T18:44:45.858Z,64.95
2023-09-06T18:47:51.540Z,65.41
2023-09-06T18:50:54.202Z,65.99
2023-09-06T18:53:57.880Z,66.48
2023-09-06T18:57:00.638Z,66.59
2023-09-06T19:00:12.206Z,68.82
2023-09-06T19:03:15.969Z,67.72
2023-09-06T19:06:19.220Z,68.57
2023-09-06T19:09:22.407Z,69.23
2023-09-06T19:12:25.408Z,68.35
2023-09-06T19:15:29.699Z,69.35
2023-09-06T19:18:32.860Z,68.83
2023-09-06T19:21:36.300Z,69.09
2023-09-06T19:24:39.765Z,69.85
2023-09-06T19:27:44.093Z,69.74
2023-09-06T19:30:51.802Z,69.68
2023-09-06T19:33:54.526Z,69.45
2023-09-06T19:36:58.105Z,70.07
2023-09-06T19:40:01.592Z,70.59
2023-09-06T19:43:05.115Z,71.40
2023-09-06T19:46:08.346Z,72.57
2023-09-06T19:49:11.385Z,72.00
2023-09-06T19:52:14.028Z,71.81
2023-09-06T19:55:19.212Z,72.12
2023-09-06T19:58:21.970Z,72.04
2023-09-06T20:01:24.931Z,72.11
2023-09-06T20:04:29.780Z,71.88
2023-09-06T20:07:32.371Z,71.47
2023-09-06T20:10:44.071Z,71.04
2023-09-06T20:13:46.675Z,70.92
2023-09-06T20:16:49.480Z,70.69
2023-09-06T20:19:52.578Z,70.73
2023-09-06T20:22:55.517Z,70.44
2023-09-06T20:25:57.921Z,70.40
2023-09-06T20:29:00.858Z,70.67
2023-09-06T20:32:03.485Z,70.88
2023-09-06T20:35:06.436Z,71.13
2023-09-06T20:38:09.043Z,70.93
2023-09-06T20:41:11.772Z,70.71
2023-09-06T20:44:14.266Z,70.64
2023-09-06T20:47:17.036Z,70.88
2023-09-06T20:50:20.197Z,70.82
2023-09-06T20:53:22.980Z,71.28
2023-09-06T20:56:25.799Z,71.53
2023-09-06T20:59:28.481Z,72.28
2023-09-06T21:02:31.130Z,72.68
2023-09-06T21:05:34.169Z,72.41
2023-09-06T21:08:36.714Z,72.87
2023-09-06T21:11:41.188Z,73.63
2023-09-06T21:14:43.638Z,73.42
2023-09-06T21:17:46.677Z,73.65
2023-09-06T21:20:49.475Z,74.19
2023-09-06T21:23:52.282Z,75.12
2023-09-06T21:26:54.990Z,75.26
2023-09-06T21:29:57.692Z,75.30
2023-09-06T21:33:03.688Z,75.56
2023-09-06T21:36:06.658Z,76.00
2023-09-06T21:39:10.795Z,75.59
2023-09-06T21:42:13.554Z,75.75
2023-09-06T21:45:16.215Z,76.48
2023-09-06T21:48:19.125Z,75.97
2023-09-06T21:51:21.951Z,76.30
2023-09-06T21:54:24.916Z,76.14
2023-09-06T21:57:27.634Z,76.17
2023-09-06T22:00:31.569Z,76.59
2023-09-06T22:03:53.040Z,76.58
2023-09-06T22:07:14.119Z,76.34
2023-09-06T22:10:34.799Z,76.97
2023-09-06T22:13:56.058Z,76.77
2023-09-06T22:17:02.069Z,77.43
2023-09-06T22:20:06.680Z,78.56
2023-09-06T22:23:09.827Z,77.80
2023-09-06T22:26:12.650Z,77.85
2023-09-06T22:29:16.005Z,78.93
2023-09-06T22:32:18.722Z,77.71
2023-09-06T22:35:21.573Z,79.55
2023-09-06T22:38:24.047Z,78.03
2023-09-06T22:41:26.870Z,80.08
2023-09-06T22:44:29.578Z,79.11
2023-09-06T22:47:32.640Z,79.93
2023-09-06T22:50:39.192Z,78.73
2023-09-06T22:53:42.013Z,78.28
2023-09-06T22:56:46.088Z,78.13
2023-09-06T22:59:49.034Z,78.51
2023-09-06T23:02:51.925Z,78.37
2023-09-06T23:05:54.880Z,77.63
2023-09-06T23:09:01.696Z,77.51
2023-09-06T23:12:06.420Z,80.05
2023-09-06T23:15:09.743Z,78.43
2023-09-06T23:18:12.467Z,77.36
2023-09-06T23:21:18.661Z,78.72
2023-09-06T23:24:23.416Z,80.26
2023-09-06T23:27:28.850Z,79.28
2023-09-06T23:30:36.166Z,78.28
2023-09-06T23:33:43.856Z,78.97
2023-09-06T23:36:46.921Z,79.33
2023-09-06T23:39:50.088Z,77.40
2023-09-06T23:42:54.756Z,77.10
2023-09-06T23:45:57.465Z,76.80
2023-09-06T23:49:00.598Z,76.76
2023-09-06T23:52:03.705Z,76.42
2023-09-06T23:55:07.395Z,76.18
2023-09-06T23:58:10.068Z,76.13
